sensor_id;sensor_type;location;lat;lon;timestamp;P1;durP1;ratioP1;P2;durP2;ratioP2
18875;SDS011;9570;50.854;13.778;2023-05-24T00:01:33;9.27;;;4.50;;
18875;SDS011;9570;50.854;13.778;2023-05-24T00:03:58;16.17;;;4.93;;
18875;SDS011;9570;50.854;13.778;2023-05-24T00:06:24;11.63;;;3.97;;
18875;SDS011;9570;50.854;13.778;2023-05-24T00:08:51;14.03;;;4.40;;
18875;SDS011;9570;50.854;13.778;2023-05-24T00:11:18;11.67;;;4.43;;
18875;SDS011;9570;50.854;13.778;2023-05-24T00:13:43;13.63;;;4.60;;
18875;SDS011;9570;50.854;13.778;2023-05-24T00:16:09;10.70;;;4.60;;
18875;SDS011;9570;50.854;13.778;2023-05-24T00:18:35;13.80;;;4.30;;
18875;SDS011;9570;50.854;13.778;2023-05-24T00:21:05;14.93;;;4.60;;
18875;SDS011;9570;50.854;13.778;2023-05-24T00:23:31;15.27;;;4.43;;
18875;SDS011;9570;50.854;13.778;2023-05-24T00:25:57;13.33;;;4.70;;
18875;SDS011;9570;50.854;13.778;2023-05-24T00:28:22;13.23;;;4.57;;
18875;SDS011;9570;50.854;13.778;2023-05-24T00:30:48;14.90;;;4.73;;
18875;SDS011;9570;50.854;13.778;2023-05-24T00:33:15;17.27;;;4.80;;
18875;SDS011;9570;50.854;13.778;2023-05-24T00:35:40;13.93;;;4.27;;
18875;SDS011;9570;50.854;13.778;2023-05-24T00:38:05;12.20;;;4.53;;
18875;SDS011;9570;50.854;13.778;2023-05-24T00:40:31;13.37;;;4.40;;
18875;SDS011;9570;50.854;13.778;2023-05-24T00:42:56;13.77;;;4.23;;
18875;SDS011;9570;50.854;13.778;2023-05-24T00:45:22;10.97;;;4.20;;
18875;SDS011;9570;50.854;13.778;2023-05-24T00:47:47;15.23;;;4.43;;
18875;SDS011;9570;50.854;13.778;2023-05-24T00:50:13;13.47;;;4.50;;
18875;SDS011;9570;50.854;13.778;2023-05-24T00:52:41;9.93;;;4.47;;
18875;SDS011;9570;50.854;13.778;2023-05-24T00:55:07;8.13;;;4.30;;
18875;SDS011;9570;50.854;13.778;2023-05-24T00:57:34;12.13;;;4.67;;
18875;SDS011;9570;50.854;13.778;2023-05-24T01:00:01;15.27;;;4.80;;
18875;SDS011;9570;50.854;13.778;2023-05-24T01:02:29;11.00;;;4.73;;
18875;SDS011;9570;50.854;13.778;2023-05-24T01:04:56;9.70;;;4.73;;
18875;SDS011;9570;50.854;13.778;2023-05-24T01:07:23;15.00;;;4.80;;
18875;SDS011;9570;50.854;13.778;2023-05-24T01:10:15;19.80;;;5.87;;
18875;SDS011;9570;50.854;13.778;2023-05-24T01:13:04;12.63;;;5.03;;
18875;SDS011;9570;50.854;13.778;2023-05-24T01:16:00;11.93;;;4.47;;
18875;SDS011;9570;50.854;13.778;2023-05-24T01:18:33;13.17;;;5.27;;
18875;SDS011;9570;50.854;13.778;2023-05-24T01:21:11;18.00;;;4.80;;
18875;SDS011;9570;50.854;13.778;2023-05-24T01:26:58;16.53;;;5.37;;
18875;SDS011;9570;50.854;13.778;2023-05-24T01:29:31;12.40;;;4.20;;
18875;SDS011;9570;50.854;13.778;2023-05-24T01:31:58;8.83;;;3.93;;
18875;SDS011;9570;50.854;13.778;2023-05-24T01:34:24;11.10;;;4.03;;
18875;SDS011;9570;50.854;13.778;2023-05-24T01:36:50;13.00;;;4.33;;
18875;SDS011;9570;50.854;13.778;2023-05-24T01:39:16;14.20;;;4.20;;
18875;SDS011;9570;50.854;13.778;2023-05-24T01:41:46;11.93;;;3.93;;
18875;SDS011;9570;50.854;13.778;2023-05-24T01:44:28;14.13;;;3.67;;
18875;SDS011;9570;50.854;13.778;2023-05-24T01:47:01;9.90;;;3.63;;
18875;SDS011;9570;50.854;13.778;2023-05-24T01:49:46;8.90;;;3.93;;
18875;SDS011;9570;50.854;13.778;2023-05-24T01:52:15;12.30;;;3.63;;
18875;SDS011;9570;50.854;13.778;2023-05-24T01:54:43;12.33;;;4.07;;
18875;SDS011;9570;50.854;13.778;2023-05-24T01:57:12;11.00;;;3.80;;
18875;SDS011;9570;50.854;13.778;2023-05-24T01:59:41;8.73;;;3.77;;
18875;SDS011;9570;50.854;13.778;2023-05-24T02:02:08;14.97;;;4.10;;
18875;SDS011;9570;50.854;13.778;2023-05-24T02:04:35;13.23;;;4.00;;
18875;SDS011;9570;50.854;13.778;2023-05-24T02:07:00;11.90;;;3.80;;
18875;SDS011;9570;50.854;13.778;2023-05-24T02:09:26;11.57;;;4.17;;
18875;SDS011;9570;50.854;13.778;2023-05-24T02:11:51;11.20;;;3.53;;
18875;SDS011;9570;50.854;13.778;2023-05-24T02:14:17;10.80;;;4.13;;
18875;SDS011;9570;50.854;13.778;2023-05-24T02:16:43;15.73;;;4.00;;
18875;SDS011;9570;50.854;13.778;2023-05-24T02:19:10;15.07;;;4.43;;
18875;SDS011;9570;50.854;13.778;2023-05-24T02:21:39;13.10;;;4.10;;
18875;SDS011;9570;50.854;13.778;2023-05-24T02:26:30;7.53;;;4.07;;
18875;SDS011;9570;50.854;13.778;2023-05-24T02:28:56;14.37;;;4.13;;
18875;SDS011;9570;50.854;13.778;2023-05-24T02:31:21;12.60;;;4.10;;
18875;SDS011;9570;50.854;13.778;2023-05-24T02:33:46;9.10;;;3.90;;
18875;SDS011;9570;50.854;13.778;2023-05-24T02:36:12;11.00;;;3.83;;
18875;SDS011;9570;50.854;13.778;2023-05-24T02:38:37;10.43;;;3.37;;
18875;SDS011;9570;50.854;13.778;2023-05-24T02:41:04;9.23;;;3.77;;
18875;SDS011;9570;50.854;13.778;2023-05-24T02:43:29;10.53;;;3.60;;
18875;SDS011;9570;50.854;13.778;2023-05-24T02:45:55;13.77;;;3.53;;
18875;SDS011;9570;50.854;13.778;2023-05-24T02:48:20;12.67;;;3.77;;
18875;SDS011;9570;50.854;13.778;2023-05-24T02:50:46;15.50;;;3.70;;
18875;SDS011;9570;50.854;13.778;2023-05-24T02:53:11;14.70;;;4.07;;
18875;SDS011;9570;50.854;13.778;2023-05-24T02:55:37;11.47;;;3.30;;
18875;SDS011;9570;50.854;13.778;2023-05-24T02:58:02;13.03;;;2.97;;
18875;SDS011;9570;50.854;13.778;2023-05-24T03:00:28;11.27;;;3.57;;
18875;SDS011;9570;50.854;13.778;2023-05-24T03:02:53;12.60;;;3.37;;
18875;SDS011;9570;50.854;13.778;2023-05-24T03:05:19;8.57;;;3.50;;
18875;SDS011;9570;50.854;13.778;2023-05-24T03:07:45;11.50;;;3.70;;
18875;SDS011;9570;50.854;13.778;2023-05-24T03:10:10;14.10;;;3.40;;
18875;SDS011;9570;50.854;13.778;2023-05-24T03:12:36;13.07;;;3.43;;
18875;SDS011;9570;50.854;13.778;2023-05-24T03:15:01;11.10;;;3.47;;
18875;SDS011;9570;50.854;13.778;2023-05-24T03:17:27;11.23;;;3.30;;
18875;SDS011;9570;50.854;13.778;2023-05-24T03:19:52;15.23;;;4.13;;
18875;SDS011;9570;50.854;13.778;2023-05-24T03:22:18;15.40;;;3.97;;
18875;SDS011;9570;50.854;13.778;2023-05-24T03:24:43;12.33;;;3.70;;
18875;SDS011;9570;50.854;13.778;2023-05-24T03:27:10;12.40;;;3.37;;
18875;SDS011;9570;50.854;13.778;2023-05-24T03:29:36;13.23;;;3.80;;
18875;SDS011;9570;50.854;13.778;2023-05-24T03:32:01;8.30;;;3.53;;
18875;SDS011;9570;50.854;13.778;2023-05-24T03:34:26;11.30;;;3.47;;
18875;SDS011;9570;50.854;13.778;2023-05-24T03:36:52;14.13;;;4.13;;
18875;SDS011;9570;50.854;13.778;2023-05-24T03:39:17;12.33;;;3.80;;
18875;SDS011;9570;50.854;13.778;2023-05-24T03:41:43;10.83;;;3.23;;
18875;SDS011;9570;50.854;13.778;2023-05-24T03:44:08;11.20;;;3.60;;
18875;SDS011;9570;50.854;13.778;2023-05-24T03:46:34;18.07;;;3.80;;
18875;SDS011;9570;50.854;13.778;2023-05-24T03:49:00;15.03;;;3.87;;
18875;SDS011;9570;50.854;13.778;2023-05-24T03:51:25;9.40;;;2.83;;
18875;SDS011;9570;50.854;13.778;2023-05-24T03:53:54;14.33;;;3.40;;
18875;SDS011;9570;50.854;13.778;2023-05-24T03:56:21;11.43;;;3.20;;
18875;SDS011;9570;50.854;13.778;2023-05-24T03:58:46;10.77;;;3.20;;
18875;SDS011;9570;50.854;13.778;2023-05-24T04:01:12;16.07;;;3.70;;
18875;SDS011;9570;50.854;13.778;2023-05-24T04:03:37;11.83;;;3.00;;
18875;SDS011;9570;50.854;13.778;2023-05-24T04:06:03;10.90;;;3.57;;
18875;SDS011;9570;50.854;13.778;2023-05-24T04:08:28;13.93;;;3.83;;
18875;SDS011;9570;50.854;13.778;2023-05-24T04:10:54;9.40;;;3.20;;
18875;SDS011;9570;50.854;13.778;2023-05-24T04:13:19;11.90;;;3.60;;
18875;SDS011;9570;50.854;13.778;2023-05-24T04:15:45;12.50;;;3.60;;
18875;SDS011;9570;50.854;13.778;2023-05-24T04:18:10;13.70;;;3.50;;
18875;SDS011;9570;50.854;13.778;2023-05-24T04:20:36;12.33;;;3.07;;
18875;SDS011;9570;50.854;13.778;2023-05-24T04:23:02;12.03;;;3.87;;
18875;SDS011;9570;50.854;13.778;2023-05-24T04:25:27;13.37;;;3.67;;
18875;SDS011;9570;50.854;13.778;2023-05-24T04:27:54;10.70;;;3.13;;
18875;SDS011;9570;50.854;13.778;2023-05-24T04:30:20;11.47;;;3.53;;
18875;SDS011;9570;50.854;13.778;2023-05-24T04:32:46;13.33;;;3.63;;
18875;SDS011;9570;50.854;13.778;2023-05-24T04:35:12;9.13;;;2.87;;
18875;SDS011;9570;50.854;13.778;2023-05-24T04:37:38;10.93;;;3.33;;
18875;SDS011;9570;50.854;13.778;2023-05-24T04:40:05;11.47;;;3.00;;
18875;SDS011;9570;50.854;13.778;2023-05-24T04:42:31;12.50;;;3.07;;
18875;SDS011;9570;50.854;13.778;2023-05-24T04:44:57;13.53;;;3.10;;
18875;SDS011;9570;50.854;13.778;2023-05-24T04:47:23;10.93;;;3.10;;
18875;SDS011;9570;50.854;13.778;2023-05-24T04:49:49;14.90;;;3.70;;
18875;SDS011;9570;50.854;13.778;2023-05-24T04:52:15;10.80;;;3.30;;
18875;SDS011;9570;50.854;13.778;2023-05-24T04:54:41;15.03;;;3.60;;
18875;SDS011;9570;50.854;13.778;2023-05-24T04:57:07;13.50;;;3.00;;
18875;SDS011;9570;50.854;13.778;2023-05-24T04:59:32;9.10;;;3.27;;
18875;SDS011;9570;50.854;13.778;2023-05-24T05:01:58;10.40;;;3.13;;
18875;SDS011;9570;50.854;13.778;2023-05-24T05:04:23;10.97;;;3.23;;
18875;SDS011;9570;50.854;13.778;2023-05-24T05:06:49;11.07;;;3.57;;
18875;SDS011;9570;50.854;13.778;2023-05-24T05:09:15;14.43;;;3.10;;
18875;SDS011;9570;50.854;13.778;2023-05-24T05:11:40;11.00;;;3.03;;
18875;SDS011;9570;50.854;13.778;2023-05-24T05:14:06;9.23;;;2.80;;
18875;SDS011;9570;50.854;13.778;2023-05-24T05:16:33;12.17;;;3.67;;
18875;SDS011;9570;50.854;13.778;2023-05-24T05:19:00;8.63;;;3.43;;
18875;SDS011;9570;50.854;13.778;2023-05-24T05:21:28;8.97;;;3.10;;
18875;SDS011;9570;50.854;13.778;2023-05-24T05:23:56;11.83;;;3.40;;
18875;SDS011;9570;50.854;13.778;2023-05-24T05:26:22;14.23;;;3.07;;
18875;SDS011;9570;50.854;13.778;2023-05-24T05:28:48;8.53;;;3.30;;
18875;SDS011;9570;50.854;13.778;2023-05-24T05:31:13;11.37;;;3.37;;
18875;SDS011;9570;50.854;13.778;2023-05-24T05:33:39;10.23;;;3.37;;
18875;SDS011;9570;50.854;13.778;2023-05-24T05:36:04;9.07;;;2.87;;
18875;SDS011;9570;50.854;13.778;2023-05-24T05:38:30;13.87;;;3.97;;
18875;SDS011;9570;50.854;13.778;2023-05-24T05:40:56;7.53;;;3.30;;
18875;SDS011;9570;50.854;13.778;2023-05-24T05:43:21;9.23;;;2.93;;
18875;SDS011;9570;50.854;13.778;2023-05-24T05:45:46;15.03;;;3.47;;
18875;SDS011;9570;50.854;13.778;2023-05-24T05:48:12;13.73;;;3.20;;
18875;SDS011;9570;50.854;13.778;2023-05-24T05:50:37;10.73;;;2.77;;
18875;SDS011;9570;50.854;13.778;2023-05-24T05:53:03;11.17;;;3.20;;
18875;SDS011;9570;50.854;13.778;2023-05-24T05:55:28;10.23;;;3.20;;
18875;SDS011;9570;50.854;13.778;2023-05-24T05:57:54;11.57;;;3.00;;
18875;SDS011;9570;50.854;13.778;2023-05-24T06:00:20;12.53;;;3.33;;
18875;SDS011;9570;50.854;13.778;2023-05-24T06:02:46;13.33;;;2.90;;
18875;SDS011;9570;50.854;13.778;2023-05-24T06:05:11;13.03;;;3.03;;
18875;SDS011;9570;50.854;13.778;2023-05-24T06:07:37;11.07;;;2.90;;
18875;SDS011;9570;50.854;13.778;2023-05-24T06:10:02;13.13;;;3.80;;
18875;SDS011;9570;50.854;13.778;2023-05-24T06:12:28;7.43;;;2.87;;
18875;SDS011;9570;50.854;13.778;2023-05-24T06:14:54;8.53;;;2.97;;
18875;SDS011;9570;50.854;13.778;2023-05-24T06:17:21;10.73;;;2.90;;
18875;SDS011;9570;50.854;13.778;2023-05-24T06:19:48;13.30;;;3.03;;
18875;SDS011;9570;50.854;13.778;2023-05-24T06:22:15;11.53;;;2.83;;
18875;SDS011;9570;50.854;13.778;2023-05-24T06:24:41;7.90;;;3.20;;
18875;SDS011;9570;50.854;13.778;2023-05-24T06:27:07;13.33;;;3.20;;
18875;SDS011;9570;50.854;13.778;2023-05-24T06:29:33;11.37;;;3.37;;
18875;SDS011;9570;50.854;13.778;2023-05-24T06:31:58;13.03;;;3.30;;
18875;SDS011;9570;50.854;13.778;2023-05-24T06:34:24;13.53;;;3.37;;
18875;SDS011;9570;50.854;13.778;2023-05-24T06:36:49;11.33;;;3.60;;
18875;SDS011;9570;50.854;13.778;2023-05-24T06:39:16;10.10;;;2.90;;
18875;SDS011;9570;50.854;13.778;2023-05-24T06:41:42;11.13;;;3.50;;
18875;SDS011;9570;50.854;13.778;2023-05-24T06:44:09;7.40;;;3.03;;
18875;SDS011;9570;50.854;13.778;2023-05-24T06:46:35;13.80;;;3.50;;
18875;SDS011;9570;50.854;13.778;2023-05-24T06:49:00;12.23;;;3.10;;
18875;SDS011;9570;50.854;13.778;2023-05-24T06:51:27;10.40;;;3.27;;
18875;SDS011;9570;50.854;13.778;2023-05-24T06:53:52;9.23;;;3.50;;
18875;SDS011;9570;50.854;13.778;2023-05-24T06:56:18;12.97;;;3.53;;
18875;SDS011;9570;50.854;13.778;2023-05-24T06:58:43;12.40;;;3.70;;
18875;SDS011;9570;50.854;13.778;2023-05-24T07:01:09;13.20;;;3.17;;
18875;SDS011;9570;50.854;13.778;2023-05-24T07:03:35;12.47;;;3.57;;
18875;SDS011;9570;50.854;13.778;2023-05-24T07:06:01;11.80;;;3.37;;
18875;SDS011;9570;50.854;13.778;2023-05-24T07:08:27;10.20;;;3.00;;
18875;SDS011;9570;50.854;13.778;2023-05-24T07:10:53;17.07;;;3.30;;
18875;SDS011;9570;50.854;13.778;2023-05-24T07:13:19;11.10;;;3.30;;
18875;SDS011;9570;50.854;13.778;2023-05-24T07:15:45;9.87;;;3.37;;
18875;SDS011;9570;50.854;13.778;2023-05-24T07:18:11;11.43;;;3.37;;
18875;SDS011;9570;50.854;13.778;2023-05-24T07:20:37;10.93;;;3.30;;
18875;SDS011;9570;50.854;13.778;2023-05-24T07:23:03;10.00;;;3.93;;
18875;SDS011;9570;50.854;13.778;2023-05-24T07:25:29;11.13;;;3.73;;
18875;SDS011;9570;50.854;13.778;2023-05-24T07:27:54;13.30;;;3.70;;
18875;SDS011;9570;50.854;13.778;2023-05-24T07:30:20;11.37;;;3.50;;
18875;SDS011;9570;50.854;13.778;2023-05-24T07:32:45;10.97;;;3.93;;
18875;SDS011;9570;50.854;13.778;2023-05-24T07:35:11;17.97;;;4.10;;
18875;SDS011;9570;50.854;13.778;2023-05-24T07:37:37;13.03;;;4.47;;
18875;SDS011;9570;50.854;13.778;2023-05-24T07:40:03;10.87;;;3.47;;
18875;SDS011;9570;50.854;13.778;2023-05-24T07:42:29;12.80;;;4.27;;
18875;SDS011;9570;50.854;13.778;2023-05-24T07:44:55;13.40;;;3.70;;
18875;SDS011;9570;50.854;13.778;2023-05-24T07:47:20;12.43;;;3.47;;
18875;SDS011;9570;50.854;13.778;2023-05-24T07:49:46;12.73;;;3.90;;
18875;SDS011;9570;50.854;13.778;2023-05-24T07:52:11;14.57;;;3.70;;
18875;SDS011;9570;50.854;13.778;2023-05-24T07:54:37;11.30;;;3.80;;
18875;SDS011;9570;50.854;13.778;2023-05-24T07:57:02;10.73;;;3.47;;
18875;SDS011;9570;50.854;13.778;2023-05-24T07:59:28;12.67;;;3.10;;
18875;SDS011;9570;50.854;13.778;2023-05-24T08:01:54;13.73;;;3.50;;
18875;SDS011;9570;50.854;13.778;2023-05-24T08:04:25;19.77;;;3.70;;
18875;SDS011;9570;50.854;13.778;2023-05-24T08:06:50;16.77;;;3.80;;
18875;SDS011;9570;50.854;13.778;2023-05-24T08:09:16;8.97;;;3.30;;
18875;SDS011;9570;50.854;13.778;2023-05-24T08:11:41;13.43;;;3.70;;
18875;SDS011;9570;50.854;13.778;2023-05-24T08:14:07;14.73;;;4.27;;
18875;SDS011;9570;50.854;13.778;2023-05-24T08:16:32;13.10;;;3.83;;
18875;SDS011;9570;50.854;13.778;2023-05-24T08:18:58;14.23;;;3.83;;
18875;SDS011;9570;50.854;13.778;2023-05-24T08:21:23;11.50;;;4.10;;
18875;SDS011;9570;50.854;13.778;2023-05-24T08:23:49;14.27;;;3.90;;
18875;SDS011;9570;50.854;13.778;2023-05-24T08:26:15;16.47;;;3.23;;
18875;SDS011;9570;50.854;13.778;2023-05-24T08:28:43;12.50;;;3.87;;
18875;SDS011;9570;50.854;13.778;2023-05-24T08:31:08;12.87;;;3.87;;
18875;SDS011;9570;50.854;13.778;2023-05-24T08:33:34;16.03;;;3.40;;
18875;SDS011;9570;50.854;13.778;2023-05-24T08:35:59;14.67;;;3.83;;
18875;SDS011;9570;50.854;13.778;2023-05-24T08:38:25;15.03;;;4.20;;
18875;SDS011;9570;50.854;13.778;2023-05-24T08:40:50;15.53;;;3.87;;
18875;SDS011;9570;50.854;13.778;2023-05-24T08:43:16;8.67;;;3.30;;
18875;SDS011;9570;50.854;13.778;2023-05-24T08:45:43;11.77;;;3.73;;
18875;SDS011;9570;50.854;13.778;2023-05-24T08:48:09;10.53;;;3.37;;
18875;SDS011;9570;50.854;13.778;2023-05-24T08:50:37;11.57;;;3.10;;
18875;SDS011;9570;50.854;13.778;2023-05-24T08:53:03;8.40;;;3.20;;
18875;SDS011;9570;50.854;13.778;2023-05-24T08:55:30;10.00;;;3.33;;
18875;SDS011;9570;50.854;13.778;2023-05-24T08:57:56;16.63;;;4.00;;
18875;SDS011;9570;50.854;13.778;2023-05-24T09:00:23;12.53;;;3.60;;
18875;SDS011;9570;50.854;13.778;2023-05-24T09:02:49;17.17;;;4.10;;
18875;SDS011;9570;50.854;13.778;2023-05-24T09:05:15;12.77;;;3.77;;
18875;SDS011;9570;50.854;13.778;2023-05-24T09:07:42;11.10;;;3.53;;
18875;SDS011;9570;50.854;13.778;2023-05-24T09:10:08;11.60;;;4.10;;
18875;SDS011;9570;50.854;13.778;2023-05-24T09:12:36;14.90;;;4.07;;
18875;SDS011;9570;50.854;13.778;2023-05-24T09:15:03;11.50;;;3.50;;
18875;SDS011;9570;50.854;13.778;2023-05-24T09:17:30;12.83;;;4.13;;
18875;SDS011;9570;50.854;13.778;2023-05-24T09:19:56;10.87;;;3.90;;
18875;SDS011;9570;50.854;13.778;2023-05-24T09:22:24;11.37;;;3.70;;
18875;SDS011;9570;50.854;13.778;2023-05-24T09:24:52;14.20;;;4.20;;
18875;SDS011;9570;50.854;13.778;2023-05-24T09:27:21;14.10;;;4.00;;
18875;SDS011;9570;50.854;13.778;2023-05-24T09:29:47;14.87;;;3.93;;
18875;SDS011;9570;50.854;13.778;2023-05-24T09:32:16;9.90;;;4.10;;
18875;SDS011;9570;50.854;13.778;2023-05-24T09:34:44;12.40;;;4.00;;
18875;SDS011;9570;50.854;13.778;2023-05-24T09:37:13;12.77;;;4.27;;
18875;SDS011;9570;50.854;13.778;2023-05-24T09:39:40;9.77;;;3.30;;
18875;SDS011;9570;50.854;13.778;2023-05-24T09:42:15;16.93;;;4.50;;
18875;SDS011;9570;50.854;13.778;2023-05-24T09:45:07;13.73;;;4.00;;
18875;SDS011;9570;50.854;13.778;2023-05-24T09:47:35;13.00;;;3.93;;
18875;SDS011;9570;50.854;13.778;2023-05-24T09:50:01;10.27;;;3.43;;
18875;SDS011;9570;50.854;13.778;2023-05-24T09:52:28;12.13;;;3.97;;
18875;SDS011;9570;50.854;13.778;2023-05-24T09:54:53;13.87;;;4.53;;
18875;SDS011;9570;50.854;13.778;2023-05-24T09:57:19;18.27;;;4.93;;
18875;SDS011;9570;50.854;13.778;2023-05-24T09:59:49;15.73;;;4.17;;
18875;SDS011;9570;50.854;13.778;2023-05-24T10:02:16;16.47;;;4.53;;
18875;SDS011;9570;50.854;13.778;2023-05-24T10:04:44;16.43;;;5.03;;
18875;SDS011;9570;50.854;13.778;2023-05-24T10:07:10;15.97;;;4.87;;
18875;SDS011;9570;50.854;13.778;2023-05-24T10:09:36;13.63;;;4.00;;
18875;SDS011;9570;50.854;13.778;2023-05-24T10:12:02;13.60;;;4.10;;
18875;SDS011;9570;50.854;13.778;2023-05-24T10:14:34;13.87;;;4.20;;
18875;SDS011;9570;50.854;13.778;2023-05-24T10:17:03;14.03;;;4.43;;
18875;SDS011;9570;50.854;13.778;2023-05-24T10:19:30;12.87;;;4.20;;
18875;SDS011;9570;50.854;13.778;2023-05-24T10:21:57;14.30;;;3.90;;
18875;SDS011;9570;50.854;13.778;2023-05-24T10:24:25;13.43;;;4.23;;
18875;SDS011;9570;50.854;13.778;2023-05-24T10:26:56;8.73;;;3.47;;
18875;SDS011;9570;50.854;13.778;2023-05-24T10:29:26;14.53;;;4.50;;
18875;SDS011;9570;50.854;13.778;2023-05-24T10:32:09;14.17;;;4.90;;
18875;SDS011;9570;50.854;13.778;2023-05-24T10:34:38;13.57;;;4.23;;
18875;SDS011;9570;50.854;13.778;2023-05-24T10:37:04;18.67;;;4.67;;
18875;SDS011;9570;50.854;13.778;2023-05-24T10:39:31;19.60;;;4.97;;
18875;SDS011;9570;50.854;13.778;2023-05-24T10:41:58;13.97;;;4.80;;
18875;SDS011;9570;50.854;13.778;2023-05-24T10:44:27;12.43;;;4.37;;
18875;SDS011;9570;50.854;13.778;2023-05-24T10:47:00;20.33;;;5.63;;
18875;SDS011;9570;50.854;13.778;2023-05-24T10:49:33;14.93;;;4.73;;
18875;SDS011;9570;50.854;13.778;2023-05-24T10:52:00;12.87;;;4.40;;
18875;SDS011;9570;50.854;13.778;2023-05-24T10:54:27;12.90;;;4.33;;
18875;SDS011;9570;50.854;13.778;2023-05-24T10:56:53;16.30;;;4.87;;
18875;SDS011;9570;50.854;13.778;2023-05-24T10:59:28;18.87;;;5.03;;
18875;SDS011;9570;50.854;13.778;2023-05-24T11:01:57;15.97;;;4.47;;
18875;SDS011;9570;50.854;13.778;2023-05-24T11:04:24;12.53;;;4.50;;
18875;SDS011;9570;50.854;13.778;2023-05-24T11:06:55;14.60;;;5.00;;
18875;SDS011;9570;50.854;13.778;2023-05-24T11:09:25;13.23;;;4.43;;
18875;SDS011;9570;50.854;13.778;2023-05-24T11:12:02;15.83;;;5.60;;
18875;SDS011;9570;50.854;13.778;2023-05-24T11:14:37;15.30;;;4.63;;
18875;SDS011;9570;50.854;13.778;2023-05-24T11:17:03;17.80;;;4.60;;
18875;SDS011;9570;50.854;13.778;2023-05-24T11:21:58;15.63;;;4.13;;
18875;SDS011;9570;50.854;13.778;2023-05-24T11:24:25;12.57;;;4.17;;
18875;SDS011;9570;50.854;13.778;2023-05-24T11:26:51;12.17;;;4.67;;
18875;SDS011;9570;50.854;13.778;2023-05-24T11:29:17;14.03;;;4.70;;
18875;SDS011;9570;50.854;13.778;2023-05-24T11:31:49;12.03;;;4.10;;
18875;SDS011;9570;50.854;13.778;2023-05-24T11:34:16;14.40;;;4.97;;
18875;SDS011;9570;50.854;13.778;2023-05-24T11:36:43;14.20;;;4.50;;
18875;SDS011;9570;50.854;13.778;2023-05-24T11:39:09;14.10;;;4.30;;
18875;SDS011;9570;50.854;13.778;2023-05-24T11:41:38;11.67;;;4.23;;
18875;SDS011;9570;50.854;13.778;2023-05-24T11:44:05;14.77;;;4.13;;
18875;SDS011;9570;50.854;13.778;2023-05-24T11:46:32;17.63;;;4.63;;
18875;SDS011;9570;50.854;13.778;2023-05-24T11:48:58;12.20;;;4.77;;
18875;SDS011;9570;50.854;13.778;2023-05-24T11:51:32;12.97;;;4.33;;
18875;SDS011;9570;50.854;13.778;2023-05-24T11:53:59;15.17;;;4.67;;
18875;SDS011;9570;50.854;13.778;2023-05-24T11:56:25;16.20;;;4.70;;
18875;SDS011;9570;50.854;13.778;2023-05-24T12:01:59;13.83;;;4.30;;
18875;SDS011;9570;50.854;13.778;2023-05-24T12:04:27;15.73;;;3.90;;
18875;SDS011;9570;50.854;13.778;2023-05-24T12:06:53;13.40;;;4.33;;
18875;SDS011;9570;50.854;13.778;2023-05-24T12:09:19;13.43;;;3.97;;
18875;SDS011;9570;50.854;13.778;2023-05-24T12:11:45;15.20;;;4.00;;
18875;SDS011;9570;50.854;13.778;2023-05-24T12:14:12;14.93;;;4.40;;
18875;SDS011;9570;50.854;13.778;2023-05-24T12:16:38;13.13;;;4.57;;
18875;SDS011;9570;50.854;13.778;2023-05-24T12:19:06;12.50;;;4.53;;
18875;SDS011;9570;50.854;13.778;2023-05-24T12:21:32;14.80;;;4.00;;
18875;SDS011;9570;50.854;13.778;2023-05-24T12:24:11;12.33;;;4.43;;
18875;SDS011;9570;50.854;13.778;2023-05-24T12:26:39;12.80;;;4.53;;
18875;SDS011;9570;50.854;13.778;2023-05-24T12:29:06;11.97;;;4.13;;
18875;SDS011;9570;50.854;13.778;2023-05-24T12:31:33;13.00;;;4.40;;
18875;SDS011;9570;50.854;13.778;2023-05-24T12:33:59;16.37;;;4.73;;
18875;SDS011;9570;50.854;13.778;2023-05-24T12:36:26;12.53;;;4.80;;
18875;SDS011;9570;50.854;13.778;2023-05-24T12:38:52;14.33;;;5.17;;
18875;SDS011;9570;50.854;13.778;2023-05-24T12:41:21;14.80;;;4.33;;
18875;SDS011;9570;50.854;13.778;2023-05-24T12:43:46;11.73;;;4.27;;
18875;SDS011;9570;50.854;13.778;2023-05-24T12:46:15;15.10;;;5.03;;
18875;SDS011;9570;50.854;13.778;2023-05-24T12:48:41;14.90;;;4.53;;
18875;SDS011;9570;50.854;13.778;2023-05-24T12:51:06;12.20;;;4.17;;
18875;SDS011;9570;50.854;13.778;2023-05-24T12:53:32;13.13;;;4.83;;
18875;SDS011;9570;50.854;13.778;2023-05-24T12:55:58;11.37;;;4.23;;
18875;SDS011;9570;50.854;13.778;2023-05-24T12:58:24;12.33;;;4.30;;
18875;SDS011;9570;50.854;13.778;2023-05-24T13:00:50;10.30;;;3.83;;
18875;SDS011;9570;50.854;13.778;2023-05-24T13:03:16;11.40;;;4.33;;
18875;SDS011;9570;50.854;13.778;2023-05-24T13:05:41;15.73;;;4.70;;
18875;SDS011;9570;50.854;13.778;2023-05-24T13:08:08;15.50;;;5.37;;
18875;SDS011;9570;50.854;13.778;2023-05-24T13:10:34;17.87;;;5.07;;
18875;SDS011;9570;50.854;13.778;2023-05-24T13:12:59;19.73;;;5.93;;
18875;SDS011;9570;50.854;13.778;2023-05-24T13:15:25;14.73;;;4.20;;
18875;SDS011;9570;50.854;13.778;2023-05-24T13:17:51;8.30;;;4.07;;
18875;SDS011;9570;50.854;13.778;2023-05-24T13:20:17;15.57;;;4.67;;
18875;SDS011;9570;50.854;13.778;2023-05-24T13:22:46;12.63;;;4.17;;
18875;SDS011;9570;50.854;13.778;2023-05-24T13:25:12;14.73;;;4.33;;
18875;SDS011;9570;50.854;13.778;2023-05-24T13:27:38;14.43;;;4.67;;
18875;SDS011;9570;50.854;13.778;2023-05-24T13:30:05;10.63;;;4.10;;
18875;SDS011;9570;50.854;13.778;2023-05-24T13:32:31;13.63;;;5.40;;
18875;SDS011;9570;50.854;13.778;2023-05-24T13:34:57;14.07;;;4.50;;
18875;SDS011;9570;50.854;13.778;2023-05-24T13:37:22;17.87;;;4.50;;
18875;SDS011;9570;50.854;13.778;2023-05-24T13:39:48;14.20;;;4.70;;
18875;SDS011;9570;50.854;13.778;2023-05-24T13:42:14;13.60;;;4.43;;
18875;SDS011;9570;50.854;13.778;2023-05-24T13:44:40;14.07;;;4.20;;
18875;SDS011;9570;50.854;13.778;2023-05-24T13:47:05;18.90;;;4.47;;
18875;SDS011;9570;50.854;13.778;2023-05-24T13:49:32;10.87;;;4.43;;
18875;SDS011;9570;50.854;13.778;2023-05-24T13:51:57;13.27;;;4.50;;
18875;SDS011;9570;50.854;13.778;2023-05-24T13:54:23;12.67;;;4.13;;
18875;SDS011;9570;50.854;13.778;2023-05-24T13:56:48;11.77;;;3.73;;
18875;SDS011;9570;50.854;13.778;2023-05-24T13:59:15;14.73;;;4.33;;
18875;SDS011;9570;50.854;13.778;2023-05-24T14:01:41;14.90;;;4.03;;
18875;SDS011;9570;50.854;13.778;2023-05-24T14:04:07;14.27;;;4.37;;
18875;SDS011;9570;50.854;13.778;2023-05-24T14:06:33;14.47;;;4.23;;
18875;SDS011;9570;50.854;13.778;2023-05-24T14:08:59;9.70;;;4.10;;
18875;SDS011;9570;50.854;13.778;2023-05-24T14:11:25;18.10;;;4.60;;
18875;SDS011;9570;50.854;13.778;2023-05-24T14:13:51;15.97;;;5.40;;
18875;SDS011;9570;50.854;13.778;2023-05-24T14:16:17;11.57;;;4.07;;
18875;SDS011;9570;50.854;13.778;2023-05-24T14:18:43;14.60;;;5.17;;
18875;SDS011;9570;50.854;13.778;2023-05-24T14:21:09;18.47;;;5.30;;
18875;SDS011;9570;50.854;13.778;2023-05-24T14:23:35;12.17;;;4.27;;
18875;SDS011;9570;50.854;13.778;2023-05-24T14:26:01;12.47;;;4.23;;
18875;SDS011;9570;50.854;13.778;2023-05-24T14:28:26;14.70;;;4.60;;
18875;SDS011;9570;50.854;13.778;2023-05-24T14:30:52;11.93;;;4.20;;
18875;SDS011;9570;50.854;13.778;2023-05-24T14:33:17;17.10;;;5.07;;
18875;SDS011;9570;50.854;13.778;2023-05-24T14:35:43;16.93;;;5.00;;
18875;SDS011;9570;50.854;13.778;2023-05-24T14:38:09;19.40;;;4.80;;
18875;SDS011;9570;50.854;13.778;2023-05-24T14:40:35;10.77;;;3.70;;
18875;SDS011;9570;50.854;13.778;2023-05-24T14:43:03;14.73;;;4.50;;
18875;SDS011;9570;50.854;13.778;2023-05-24T14:45:30;11.47;;;3.87;;